sensor_id;sensor_type;location;lat;lon;timestamp;temperature;humidity
13496;DHT22;6820;49.374;8.452;2023-05-07T00:02:39;17.94;99.99
13496;DHT22;6820;49.374;8.452;2023-05-07T00:06:41;17.91;99.99
13496;DHT22;6820;49.374;8.452;2023-05-07T00:10:43;17.94;99.99
13496;DHT22;6820;49.374;8.452;2023-05-07T00:14:45;17.91;99.99
13496;DHT22;6820;49.374;8.452;2023-05-07T00:18:46;17.87;99.99
13496;DHT22;6820;49.374;8.452;2023-05-07T00:22:48;17.80;99.99
13496;DHT22;6820;49.374;8.452;2023-05-07T00:26:49;17.80;99.99
13496;DHT22;6820;49.374;8.452;2023-05-07T00:30:52;17.84;99.99
13496;DHT22;6820;49.374;8.452;2023-05-07T00:34:53;17.77;99.99
13496;DHT22;6820;49.374;8.452;2023-05-07T00:38:56;17.83;99.99
13496;DHT22;6820;49.374;8.452;2023-05-07T00:42:58;17.83;99.99
13496;DHT22;6820;49.374;8.452;2023-05-07T00:47:01;17.80;99.99
13496;DHT22;6820;49.374;8.452;2023-05-07T00:51:04;17.79;99.99
13496;DHT22;6820;49.374;8.452;2023-05-07T00:55:06;17.70;99.99
13496;DHT22;6820;49.374;8.452;2023-05-07T00:59:09;17.60;99.99
13496;DHT22;6820;49.374;8.452;2023-05-07T01:03:11;17.54;99.99
13496;DHT22;6820;49.374;8.452;2023-05-07T01:07:13;17.47;99.99
13496;DHT22;6820;49.374;8.452;2023-05-07T01:11:16;17.38;99.99
13496;DHT22;6820;49.374;8.452;2023-05-07T01:15:20;17.33;99.99
13496;DHT22;6820;49.374;8.452;2023-05-07T01:19:22;17.33;99.99
13496;DHT22;6820;49.374;8.452;2023-05-07T01:23:24;17.35;99.99
13496;DHT22;6820;49.374;8.452;2023-05-07T01:27:27;17.32;99.99
13496;DHT22;6820;49.374;8.452;2023-05-07T01:31:29;17.24;99.99
13496;DHT22;6820;49.374;8.452;2023-05-07T01:35:36;17.25;99.99
13496;DHT22;6820;49.374;8.452;2023-05-07T01:39:41;17.17;99.99
13496;DHT22;6820;49.374;8.452;2023-05-07T01:43:43;17.14;99.99
13496;DHT22;6820;49.374;8.452;2023-05-07T01:47:46;17.03;99.99
13496;DHT22;6820;49.374;8.452;2023-05-07T01:51:47;16.87;99.99
13496;DHT22;6820;49.374;8.452;2023-05-07T01:55:50;16.85;99.99
13496;DHT22;6820;49.374;8.452;2023-05-07T01:59:51;16.81;99.99
13496;DHT22;6820;49.374;8.452;2023-05-07T02:03:53;16.77;99.99
13496;DHT22;6820;49.374;8.452;2023-05-07T02:07:59;16.78;99.99
13496;DHT22;6820;49.374;8.452;2023-05-07T02:12:02;16.73;99.99
13496;DHT22;6820;49.374;8.452;2023-05-07T02:16:04;16.70;99.99
13496;DHT22;6820;49.374;8.452;2023-05-07T02:20:07;16.66;99.99
13496;DHT22;6820;49.374;8.452;2023-05-07T02:24:15;16.57;99.99
13496;DHT22;6820;49.374;8.452;2023-05-07T02:28:17;16.62;99.99
13496;DHT22;6820;49.374;8.452;2023-05-07T02:32:25;16.67;99.99
13496;DHT22;6820;49.374;8.452;2023-05-07T02:36:27;16.63;99.99
13496;DHT22;6820;49.374;8.452;2023-05-07T02:40:35;16.57;99.99
13496;DHT22;6820;49.374;8.452;2023-05-07T02:44:40;16.52;99.99
13496;DHT22;6820;49.374;8.452;2023-05-07T02:48:41;16.45;99.99
13496;DHT22;6820;49.374;8.452;2023-05-07T02:52:43;16.50;99.99
13496;DHT22;6820;49.374;8.452;2023-05-07T02:56:45;16.50;99.99
13496;DHT22;6820;49.374;8.452;2023-05-07T03:00:46;16.40;99.99
13496;DHT22;6820;49.374;8.452;2023-05-07T03:05:14;16.40;99.99
13496;DHT22;6820;49.374;8.452;2023-05-07T03:09:16;16.33;99.99
13496;DHT22;6820;49.374;8.452;2023-05-07T03:13:18;16.32;99.99
13496;DHT22;6820;49.374;8.452;2023-05-07T03:17:20;16.33;99.99
13496;DHT22;6820;49.374;8.452;2023-05-07T03:21:22;16.30;99.99
13496;DHT22;6820;49.374;8.452;2023-05-07T03:25:23;16.22;99.99
13496;DHT22;6820;49.374;8.452;2023-05-07T03:29:25;16.14;99.99
13496;DHT22;6820;49.374;8.452;2023-05-07T03:33:26;16.17;99.99
13496;DHT22;6820;49.374;8.452;2023-05-07T03:37:29;16.13;99.99
13496;DHT22;6820;49.374;8.452;2023-05-07T03:41:32;16.06;99.99
13496;DHT22;6820;49.374;8.452;2023-05-07T03:45:33;16.10;99.99
13496;DHT22;6820;49.374;8.452;2023-05-07T03:49:46;16.10;99.99
13496;DHT22;6820;49.374;8.452;2023-05-07T03:53:48;16.07;99.99
13496;DHT22;6820;49.374;8.452;2023-05-07T03:57:50;16.03;99.99
13496;DHT22;6820;49.374;8.452;2023-05-07T04:01:53;15.96;99.99
13496;DHT22;6820;49.374;8.452;2023-05-07T04:05:57;15.93;99.99
13496;DHT22;6820;49.374;8.452;2023-05-07T04:09:59;15.93;99.99
13496;DHT22;6820;49.374;8.452;2023-05-07T04:14:01;15.93;99.99
13496;DHT22;6820;49.374;8.452;2023-05-07T04:18:02;15.92;99.99
13496;DHT22;6820;49.374;8.452;2023-05-07T04:22:04;15.95;99.99
13496;DHT22;6820;49.374;8.452;2023-05-07T04:26:06;15.96;99.99
13496;DHT22;6820;49.374;8.452;2023-05-07T04:30:13;16.04;99.99
13496;DHT22;6820;49.374;8.452;2023-05-07T04:34:15;16.06;99.99
13496;DHT22;6820;49.374;8.452;2023-05-07T04:38:17;15.99;99.99
13496;DHT22;6820;49.374;8.452;2023-05-07T04:42:21;15.96;99.99
13496;DHT22;6820;49.374;8.452;2023-05-07T04:46:24;15.96;99.99
13496;DHT22;6820;49.374;8.452;2023-05-07T04:50:28;16.03;99.99
13496;DHT22;6820;49.374;8.452;2023-05-07T04:54:34;16.06;99.99
13496;DHT22;6820;49.374;8.452;2023-05-07T04:58:35;16.13;99.99
13496;DHT22;6820;49.374;8.452;2023-05-07T05:02:38;16.22;99.99
13496;DHT22;6820;49.374;8.452;2023-05-07T05:06:40;16.33;99.99
13496;DHT22;6820;49.374;8.452;2023-05-07T05:10:44;16.44;99.99
13496;DHT22;6820;49.374;8.452;2023-05-07T05:14:46;16.45;99.99
13496;DHT22;6820;49.374;8.452;2023-05-07T05:18:48;16.42;99.99
13496;DHT22;6820;49.374;8.452;2023-05-07T05:22:52;16.47;99.99
13496;DHT22;6820;49.374;8.452;2023-05-07T05:26:54;16.48;99.99
13496;DHT22;6820;49.374;8.452;2023-05-07T05:30:57;16.57;99.99
13496;DHT22;6820;49.374;8.452;2023-05-07T05:35:01;16.59;99.99
13496;DHT22;6820;49.374;8.452;2023-05-07T05:39:04;16.62;99.99
13496;DHT22;6820;49.374;8.452;2023-05-07T05:43:05;16.60;99.99
13496;DHT22;6820;49.374;8.452;2023-05-07T05:47:07;16.62;99.99
13496;DHT22;6820;49.374;8.452;2023-05-07T05:51:09;16.67;99.99
13496;DHT22;6820;49.374;8.452;2023-05-07T05:55:11;16.70;99.99
13496;DHT22;6820;49.374;8.452;2023-05-07T05:59:12;16.87;99.99
13496;DHT22;6820;49.374;8.452;2023-05-07T06:03:15;16.96;99.99
13496;DHT22;6820;49.374;8.452;2023-05-07T06:07:17;17.09;99.99
13496;DHT22;6820;49.374;8.452;2023-05-07T06:11:19;17.12;99.99
13496;DHT22;6820;49.374;8.452;2023-05-07T06:15:21;17.09;99.99
13496;DHT22;6820;49.374;8.452;2023-05-07T06:19:24;17.10;99.99
13496;DHT22;6820;49.374;8.452;2023-05-07T06:23:28;17.25;99.99
13496;DHT22;6820;49.374;8.452;2023-05-07T06:27:30;17.28;99.99
13496;DHT22;6820;49.374;8.452;2023-05-07T06:31:32;17.42;99.99
13496;DHT22;6820;49.374;8.452;2023-05-07T06:35:38;17.54;99.99
13496;DHT22;6820;49.374;8.452;2023-05-07T06:39:40;17.65;99.99
13496;DHT22;6820;49.374;8.452;2023-05-07T06:43:42;17.81;99.99
13496;DHT22;6820;49.374;8.452;2023-05-07T06:47:59;17.98;99.99
13496;DHT22;6820;49.374;8.452;2023-05-07T06:52:03;17.91;99.99
13496;DHT22;6820;49.374;8.452;2023-05-07T06:56:05;17.81;99.99
13496;DHT22;6820;49.374;8.452;2023-05-07T07:00:07;17.99;99.99
13496;DHT22;6820;49.374;8.452;2023-05-07T07:04:20;18.25;99.99
13496;DHT22;6820;49.374;8.452;2023-05-07T07:08:32;18.36;99.99
13496;DHT22;6820;49.374;8.452;2023-05-07T07:12:34;18.56;99.99
13496;DHT22;6820;49.374;8.452;2023-05-07T07:16:36;18.68;99.99
13496;DHT22;6820;49.374;8.452;2023-05-07T07:20:38;18.69;99.99
13496;DHT22;6820;49.374;8.452;2023-05-07T07:24:42;18.78;99.99
13496;DHT22;6820;49.374;8.452;2023-05-07T07:28:46;18.96;99.99
13496;DHT22;6820;49.374;8.452;2023-05-07T07:32:52;19.02;99.99
13496;DHT22;6820;49.374;8.452;2023-05-07T07:36:54;19.17;99.99
13496;DHT22;6820;49.374;8.452;2023-05-07T07:40:57;19.30;99.99
13496;DHT22;6820;49.374;8.452;2023-05-07T07:44:59;19.49;99.99
13496;DHT22;6820;49.374;8.452;2023-05-07T07:49:05;19.52;99.99
13496;DHT22;6820;49.374;8.452;2023-05-07T07:53:07;19.53;99.99
13496;DHT22;6820;49.374;8.452;2023-05-07T07:57:09;19.71;99.99
13496;DHT22;6820;49.374;8.452;2023-05-07T08:01:11;19.80;99.99
13496;DHT22;6820;49.374;8.452;2023-05-07T08:05:14;19.90;99.99
13496;DHT22;6820;49.374;8.452;2023-05-07T08:09:17;20.07;99.99
13496;DHT22;6820;49.374;8.452;2023-05-07T08:13:20;20.13;99.99
13496;DHT22;6820;49.374;8.452;2023-05-07T08:17:24;20.22;99.99
13496;DHT22;6820;49.374;8.452;2023-05-07T08:21:26;20.42;99.99
13496;DHT22;6820;49.374;8.452;2023-05-07T08:25:28;20.60;99.99
13496;DHT22;6820;49.374;8.452;2023-05-07T08:29:30;20.73;99.99
13496;DHT22;6820;49.374;8.452;2023-05-07T08:33:33;20.78;99.99
13496;DHT22;6820;49.374;8.452;2023-05-07T08:37:35;20.94;99.99
13496;DHT22;6820;49.374;8.452;2023-05-07T08:41:37;21.05;99.99
13496;DHT22;6820;49.374;8.452;2023-05-07T08:45:39;21.13;99.99
13496;DHT22;6820;49.374;8.452;2023-05-07T08:49:44;21.12;99.99
13496;DHT22;6820;49.374;8.452;2023-05-07T08:53:48;21.16;99.99
13496;DHT22;6820;49.374;8.452;2023-05-07T08:57:57;21.30;99.99
13496;DHT22;6820;49.374;8.452;2023-05-07T09:01:58;21.45;99.99
13496;DHT22;6820;49.374;8.452;2023-05-07T09:06:01;21.46;99.99
13496;DHT22;6820;49.374;8.452;2023-05-07T09:10:05;21.53;99.99
13496;DHT22;6820;49.374;8.452;2023-05-07T09:14:09;21.63;99.99
13496;DHT22;6820;49.374;8.452;2023-05-07T09:18:15;21.67;99.99
13496;DHT22;6820;49.374;8.452;2023-05-07T09:22:19;21.77;99.99
13496;DHT22;6820;49.374;8.452;2023-05-07T09:26:29;21.96;99.99
13496;DHT22;6820;49.374;8.452;2023-05-07T09:30:33;22.05;99.99
13496;DHT22;6820;49.374;8.452;2023-05-07T09:34:38;22.01;99.99
13496;DHT22;6820;49.374;8.452;2023-05-07T09:38:41;21.89;99.99
13496;DHT22;6820;49.374;8.452;2023-05-07T09:42:44;22.08;99.99
13496;DHT22;6820;49.374;8.452;2023-05-07T09:46:46;22.17;99.99
13496;DHT22;6820;49.374;8.452;2023-05-07T09:51:01;22.29;99.99
13496;DHT22;6820;49.374;8.452;2023-05-07T09:55:06;22.44;99.99
13496;DHT22;6820;49.374;8.452;2023-05-07T09:59:10;22.49;99.99
13496;DHT22;6820;49.374;8.452;2023-05-07T10:03:17;22.63;99.99
13496;DHT22;6820;49.374;8.452;2023-05-07T10:07:32;22.69;99.99
13496;DHT22;6820;49.374;8.452;2023-05-07T10:11:40;22.74;99.99
13496;DHT22;6820;49.374;8.452;2023-05-07T10:15:42;22.86;99.99
13496;DHT22;6820;49.374;8.452;2023-05-07T10:19:44;22.88;99.99
13496;DHT22;6820;49.374;8.452;2023-05-07T10:23:58;22.93;99.99
13496;DHT22;6820;49.374;8.452;2023-05-07T10:28:16;23.07;99.99
13496;DHT22;6820;49.374;8.452;2023-05-07T10:36:41;23.26;99.99
13496;DHT22;6820;49.374;8.452;2023-05-07T10:40:44;23.45;99.99
13496;DHT22;6820;49.374;8.452;2023-05-07T10:44:50;23.63;99.99
13496;DHT22;6820;49.374;8.452;2023-05-07T10:53:39;23.90;99.99
13496;DHT22;6820;49.374;8.452;2023-05-07T10:57:48;24.08;99.99
13496;DHT22;6820;49.374;8.452;2023-05-07T11:01:57;24.23;99.99
13496;DHT22;6820;49.374;8.452;2023-05-07T11:06:16;24.61;99.99
13496;DHT22;6820;49.374;8.452;2023-05-07T11:10:48;24.89;99.99
13496;DHT22;6820;49.374;8.452;2023-05-07T11:15:14;24.99;99.99
13496;DHT22;6820;49.374;8.452;2023-05-07T11:19:40;25.20;99.99
13496;DHT22;6820;49.374;8.452;2023-05-07T11:23:57;25.23;99.99
13496;DHT22;6820;49.374;8.452;2023-05-07T11:28:12;25.20;99.99
13496;DHT22;6820;49.374;8.452;2023-05-07T11:36:30;25.49;99.99
13496;DHT22;6820;49.374;8.452;2023-05-07T11:40:35;25.51;99.99
13496;DHT22;6820;49.374;8.452;2023-05-07T11:44:56;25.51;99.99
13496;DHT22;6820;49.374;8.452;2023-05-07T11:48:58;25.74;99.99
13496;DHT22;6820;49.374;8.452;2023-05-07T11:53:07;25.90;99.99
13496;DHT22;6820;49.374;8.452;2023-05-07T11:57:14;26.03;99.99
13496;DHT22;6820;49.374;8.452;2023-05-07T12:01:16;26.19;99.99
13496;DHT22;6820;49.374;8.452;2023-05-07T12:05:18;26.34;99.99
13496;DHT22;6820;49.374;8.452;2023-05-07T12:09:20;26.46;99.99
13496;DHT22;6820;49.374;8.452;2023-05-07T12:13:22;26.61;99.99
13496;DHT22;6820;49.374;8.452;2023-05-07T12:17:27;26.81;99.99
13496;DHT22;6820;49.374;8.452;2023-05-07T12:21:29;27.11;99.99
13496;DHT22;6820;49.374;8.452;2023-05-07T12:25:35;26.98;99.99
13496;DHT22;6820;49.374;8.452;2023-05-07T12:29:37;26.69;99.99
13496;DHT22;6820;49.374;8.452;2023-05-07T12:33:42;26.42;99.99
13496;DHT22;6820;49.374;8.452;2023-05-07T12:37:44;26.56;99.99
13496;DHT22;6820;49.374;8.452;2023-05-07T12:41:53;26.94;99.99
13496;DHT22;6820;49.374;8.452;2023-05-07T12:45:57;27.28;99.99
13496;DHT22;6820;49.374;8.452;2023-05-07T12:50:00;27.31;99.99
13496;DHT22;6820;49.374;8.452;2023-05-07T12:54:02;27.23;99.99
13496;DHT22;6820;49.374;8.452;2023-05-07T12:58:04;26.87;99.99
13496;DHT22;6820;49.374;8.452;2023-05-07T13:02:06;26.59;99.99
13496;DHT22;6820;49.374;8.452;2023-05-07T13:06:09;26.39;99.99
13496;DHT22;6820;49.374;8.452;2023-05-07T13:10:11;26.23;99.99
13496;DHT22;6820;49.374;8.452;2023-05-07T13:14:14;26.08;99.99
13496;DHT22;6820;49.374;8.452;2023-05-07T13:18:16;25.91;99.99
13496;DHT22;6820;49.374;8.452;2023-05-07T13:22:19;25.75;99.99
13496;DHT22;6820;49.374;8.452;2023-05-07T13:26:20;25.59;99.99
13496;DHT22;6820;49.374;8.452;2023-05-07T13:30:27;25.20;99.99
13496;DHT22;6820;49.374;8.452;2023-05-07T13:34:29;24.86;99.99
13496;DHT22;6820;49.374;8.452;2023-05-07T13:38:30;24.63;99.99
13496;DHT22;6820;49.374;8.452;2023-05-07T13:42:32;24.41;99.99
13496;DHT22;6820;49.374;8.452;2023-05-07T13:46:33;24.16;99.99
13496;DHT22;6820;49.374;8.452;2023-05-07T13:50:35;23.69;99.99
13496;DHT22;6820;49.374;8.452;2023-05-07T13:54:37;23.21;99.99
13496;DHT22;6820;49.374;8.452;2023-05-07T13:58:38;22.72;99.99
13496;DHT22;6820;49.374;8.452;2023-05-07T14:02:56;22.30;99.99
13496;DHT22;6820;49.374;8.452;2023-05-07T14:06:59;21.83;99.99
13496;DHT22;6820;49.374;8.452;2023-05-07T14:11:00;20.85;99.99
13496;DHT22;6820;49.374;8.452;2023-05-07T14:15:02;20.17;99.99
13496;DHT22;6820;49.374;8.452;2023-05-07T14:19:04;19.64;99.99
13496;DHT22;6820;49.374;8.452;2023-05-07T14:23:06;19.25;99.99
13496;DHT22;6820;49.374;8.452;2023-05-07T14:27:08;19.06;99.99
13496;DHT22;6820;49.374;8.452;2023-05-07T14:31:09;18.93;99.99
13496;DHT22;6820;49.374;8.452;2023-05-07T14:35:11;18.97;99.99
13496;DHT22;6820;49.374;8.452;2023-05-07T14:39:13;18.96;99.99
13496;DHT22;6820;49.374;8.452;2023-05-07T14:43:15;18.71;99.99
13496;DHT22;6820;49.374;8.452;2023-05-07T14:47:17;18.41;99.99
13496;DHT22;6820;49.374;8.452;2023-05-07T14:51:20;18.23;99.99
13496;DHT22;6820;49.374;8.452;2023-05-07T14:55:22;18.16;99.99
13496;DHT22;6820;49.374;8.452;2023-05-07T14:59:23;18.11;99.99
13496;DHT22;6820;49.374;8.452;2023-05-07T15:03:26;18.14;99.99
13496;DHT22;6820;49.374;8.452;2023-05-07T15:07:28;18.17;99.99
13496;DHT22;6820;49.374;8.452;2023-05-07T15:11:30;18.19;99.99
13496;DHT22;6820;49.374;8.452;2023-05-07T15:15:31;18.17;99.99
13496;DHT22;6820;49.374;8.452;2023-05-07T15:19:34;18.26;99.99
13496;DHT22;6820;49.374;8.452;2023-05-07T15:23:35;18.31;99.99
13496;DHT22;6820;49.374;8.452;2023-05-07T15:27:37;18.31;99.99
13496;DHT22;6820;49.374;8.452;2023-05-07T15:31:39;18.26;99.99
13496;DHT22;6820;49.374;8.452;2023-05-07T15:35:41;18.25;99.99
13496;DHT22;6820;49.374;8.452;2023-05-07T15:39:42;18.21;99.99
13496;DHT22;6820;49.374;8.452;2023-05-07T15:43:46;18.19;99.99
13496;DHT22;6820;49.374;8.452;2023-05-07T15:47:49;18.05;99.99
13496;DHT22;6820;49.374;8.452;2023-05-07T15:51:51;18.07;99.99
13496;DHT22;6820;49.374;8.452;2023-05-07T15:55:55;18.07;99.99
13496;DHT22;6820;49.374;8.452;2023-05-07T15:59:57;18.05;99.99
13496;DHT22;6820;49.374;8.452;2023-05-07T16:03:59;18.04;99.99
13496;DHT22;6820;49.374;8.452;2023-05-07T16:08:01;17.92;99.99
13496;DHT22;6820;49.374;8.452;2023-05-07T16:12:02;17.91;99.99
13496;DHT22;6820;49.374;8.452;2023-05-07T16:16:04;17.80;99.99
13496;DHT22;6820;49.374;8.452;2023-05-07T16:20:07;17.79;99.99
13496;DHT22;6820;49.374;8.452;2023-05-07T16:24:09;17.76;99.99
13496;DHT22;6820;49.374;8.452;2023-05-07T16:28:11;17.80;99.99
13496;DHT22;6820;49.374;8.452;2023-05-07T16:32:12;17.83;99.99
13496;DHT22;6820;49.374;8.452;2023-05-07T16:36:14;17.89;99.99
13496;DHT22;6820;49.374;8.452;2023-05-07T16:40:16;17.83;99.99
13496;DHT22;6820;49.374;8.452;2023-05-07T16:44:17;17.81;99.99
13496;DHT22;6820;49.374;8.452;2023-05-07T16:48:19;17.83;99.99
13496;DHT22;6820;49.374;8.452;2023-05-07T16:52:21;17.86;99.99
13496;DHT22;6820;49.374;8.452;2023-05-07T16:56:23;17.74;99.99
13496;DHT22;6820;49.374;8.452;2023-05-07T17:00:24;17.71;99.99
13496;DHT22;6820;49.374;8.452;2023-05-07T17:04:35;17.68;99.99
13496;DHT22;6820;49.374;8.452;2023-05-07T17:08:36;17.70;99.99
13496;DHT22;6820;49.374;8.452;2023-05-07T17:12:41;17.70;99.99
13496;DHT22;6820;49.374;8.452;2023-05-07T17:16:43;17.68;99.99
13496;DHT22;6820;49.374;8.452;2023-05-07T17:20:45;17.70;99.99
13496;DHT22;6820;49.374;8.452;2023-05-07T17:24:46;17.71;99.99
13496;DHT22;6820;49.374;8.452;2023-05-07T17:28:48;17.66;99.99
13496;DHT22;6820;49.374;8.452;2023-05-07T17:32:50;17.70;99.99
13496;DHT22;6820;49.374;8.452;2023-05-07T17:36:51;17.65;99.99
13496;DHT22;6820;49.374;8.452;2023-05-07T17:40:53;17.60;99.99
13496;DHT22;6820;49.374;8.452;2023-05-07T17:44:54;17.58;99.99
13496;DHT22;6820;49.374;8.452;2023-05-07T17:48:56;17.47;99.99
13496;DHT22;6820;49.374;8.452;2023-05-07T17:52:58;17.42;99.99
13496;DHT22;6820;49.374;8.452;2023-05-07T17:56:59;17.39;99.99
13496;DHT22;6820;49.374;8.452;2023-05-07T18:01:01;17.51;99.99
13496;DHT22;6820;49.374;8.452;2023-05-07T18:05:03;17.49;99.99
13496;DHT22;6820;49.374;8.452;2023-05-07T18:09:05;17.60;99.99
13496;DHT22;6820;49.374;8.452;2023-05-07T18:13:07;17.68;99.99
13496;DHT22;6820;49.374;8.452;2023-05-07T18:17:09;17.79;99.99
13496;DHT22;6820;49.374;8.452;2023-05-07T18:21:11;17.74;99.99
13496;DHT22;6820;49.374;8.452;2023-05-07T18:25:18;17.71;99.99
13496;DHT22;6820;49.374;8.452;2023-05-07T18:29:20;17.70;99.99
13496;DHT22;6820;49.374;8.452;2023-05-07T18:33:23;17.76;99.99
13496;DHT22;6820;49.374;8.452;2023-05-07T18:37:24;17.79;99.99
13496;DHT22;6820;49.374;8.452;2023-05-07T18:41:27;17.79;99.99
13496;DHT22;6820;49.374;8.452;2023-05-07T18:45:28;17.79;99.99
13496;DHT22;6820;49.374;8.452;2023-05-07T18:49:30;17.80;99.99
13496;DHT22;6820;49.374;8.452;2023-05-07T18:53:32;17.84;99.99
13496;DHT22;6820;49.374;8.452;2023-05-07T18:57:34;17.79;99.99
13496;DHT22;6820;49.374;8.452;2023-05-07T19:01:36;17.74;99.99
13496;DHT22;6820;49.374;8.452;2023-05-07T19:05:38;17.71;99.99
13496;DHT22;6820;49.374;8.452;2023-05-07T19:09:40;17.70;99.99
13496;DHT22;6820;49.374;8.452;2023-05-07T19:13:57;17.58;99.99
13496;DHT22;6820;49.374;8.452;2023-05-07T19:18:04;17.53;99.99
13496;DHT22;6820;49.374;8.452;2023-05-07T19:22:06;17.54;99.99
13496;DHT22;6820;49.374;8.452;2023-05-07T19:26:08;17.54;99.99
13496;DHT22;6820;49.374;8.452;2023-05-07T19:30:10;17.53;99.99
13496;DHT22;6820;49.374;8.452;2023-05-07T19:34:12;17.54;99.99
13496;DHT22;6820;49.374;8.452;2023-05-07T19:38:14;17.49;99.99
13496;DHT22;6820;49.374;8.452;2023-05-07T19:42:16;17.51;99.99
13496;DHT22;6820;49.374;8.452;2023-05-07T19:46:17;17.53;99.99
13496;DHT22;6820;49.374;8.452;2023-05-07T19:50:19;17.47;99.99
13496;DHT22;6820;49.374;8.452;2023-05-07T19:54:22;17.49;99.99
13496;DHT22;6820;49.374;8.452;2023-05-07T19:58:24;17.43;99.99
13496;DHT22;6820;49.374;8.452;2023-05-07T20:02:25;17.38;99.99
13496;DHT22;6820;49.374;8.452;2023-05-07T20:06:27;17.30;99.99
13496;DHT22;6820;49.374;8.452;2023-05-07T20:10:29;17.25;99.99
13496;DHT22;6820;49.374;8.452;2023-05-07T20:14:31;17.32;99.99
13496;DHT22;6820;49.374;8.452;2023-05-07T20:18:33;17.42;99.99
13496;DHT22;6820;49.374;8.452;2023-05-07T20:22:34;17.40;99.99
13496;DHT22;6820;49.374;8.452;2023-05-07T20:26:36;17.45;99.99
13496;DHT22;6820;49.374;8.452;2023-05-07T20:30:39;17.51;99.99
13496;DHT22;6820;49.374;8.452;2023-05-07T20:34:40;17.54;99.99
13496;DHT22;6820;49.374;8.452;2023-05-07T20:38:42;17.55;99.99
13496;DHT22;6820;49.374;8.452;2023-05-07T20:42:44;17.49;99.99
13496;DHT22;6820;49.374;8.452;2023-05-07T20:46:46;17.49;99.99
13496;DHT22;6820;49.374;8.452;2023-05-07T20:50:47;17.47;99.99
13496;DHT22;6820;49.374;8.452;2023-05-07T20:54:49;17.45;99.99
13496;DHT22;6820;49.374;8.452;2023-05-07T20:58:51;17.46;99.99
13496;DHT22;6820;49.374;8.452;2023-05-07T21:02:53;17.47;99.99
13496;DHT22;6820;49.374;8.452;2023-05-07T21:06:55;17.47;99.99
13496;DHT22;6820;49.374;8.452;2023-05-07T21:10:57;17.45;99.99
13496;DHT22;6820;49.374;8.452;2023-05-07T21:14:59;17.47;99.99
13496;DHT22;6820;49.374;8.452;2023-05-07T21:19:01;17.49;99.99
13496;DHT22;6820;49.374;8.452;2023-05-07T21:23:02;17.49;99.99
13496;DHT22;6820;49.374;8.452;2023-05-07T21:27:05;17.51;99.99
13496;DHT22;6820;49.374;8.452;2023-05-07T21:31:06;17.45;99.99
13496;DHT22;6820;49.374;8.452;2023-05-07T21:35:08;17.51;99.99
13496;DHT22;6820;49.374;8.452;2023-05-07T21:39:09;17.43;99.99
13496;DHT22;6820;49.374;8.452;2023-05-07T21:43:12;17.43;99.99
13496;DHT22;6820;49.374;8.452;2023-05-07T21:47:13;17.51;99.99
13496;DHT22;6820;49.374;8.452;2023-05-07T21:51:15;17.54;99.99
13496;DHT22;6820;49.374;8.452;2023-05-07T21:55:17;17.58;99.99
13496;DHT22;6820;49.374;8.452;2023-05-07T21:59:19;17.57;99.99
13496;DHT22;6820;49.374;8.452;2023-05-07T22:03:20;17.54;99.99
13496;DHT22;6820;49.374;8.452;2023-05-07T22:07:22;17.55;99.99
13496;DHT22;6820;49.374;8.452;2023-05-07T22:11:24;17.54;99.99
13496;DHT22;6820;49.374;8.452;2023-05-07T22:15:26;17.51;99.99
13496;DHT22;6820;49.374;8.452;2023-05-07T22:19:28;17.47;99.99
13496;DHT22;6820;49.374;8.452;2023-05-07T22:23:29;17.43;99.99
13496;DHT22;6820;49.374;8.452;2023-05-07T22:27:31;17.43;99.99
13496;DHT22;6820;49.374;8.452;2023-05-07T22:31:33;17.42;99.99
13496;DHT22;6820;49.374;8.452;2023-05-07T22:35:34;17.40;99.99
13496;DHT22;6820;49.374;8.452;2023-05-07T22:39:36;17.40;99.99
13496;DHT22;6820;49.374;8.452;2023-05-07T22:43:37;17.43;99.99
13496;DHT22;6820;49.374;8.452;2023-05-07T22:47:39;17.42;99.99
13496;DHT22;6820;49.374;8.452;2023-05-07T22:51:41;17.38;99.99
13496;DHT22;6820;49.374;8.452;2023-05-07T22:55:43;17.35;99.99
13496;DHT22;6820;49.374;8.452;2023-05-07T22:59:44;17.33;99.99
13496;DHT22;6820;49.374;8.452;2023-05-07T23:03:46;17.28;99.99
13496;DHT22;6820;49.374;8.452;2023-05-07T23:07:48;17.27;99.99
13496;DHT22;6820;49.374;8.452;2023-05-07T23:11:49;17.32;99.99
13496;DHT22;6820;49.374;8.452;2023-05-07T23:15:51;17.32;99.99
13496;DHT22;6820;49.374;8.452;2023-05-07T23:19:52;17.35;99.99
13496;DHT22;6820;49.374;8.452;2023-05-07T23:23:54;17.38;99.99
13496;DHT22;6820;49.374;8.452;2023-05-07T23:27:55;17.35;99.99
13496;DHT22;6820;49.374;8.452;2023-05-07T23:31:57;17.30;99.99
13496;DHT22;6820;49.374;8.452;2023-05-07T23:35:59;17.24;99.99
13496;DHT22;6820;49.374;8.452;2023-05-07T23:40:02;17.22;99.99
13496;DHT22;6820;49.374;8.452;2023-05-07T23:44:04;17.20;99.99
13496;DHT22;6820;49.374;8.452;2023-05-07T23:48:05;17.14;99.99
13496;DHT22;6820;49.374;8.452;2023-05-07T23:52:07;17.10;99.99
13496;DHT22;6820;49.374;8.452;2023-05-07T23:56:08;17.17;99.99
